This is the latest recevied weather packets stored in our database for station/object TG8ARF-18. If no packets are shown the sender has not sent any weather packets the latest 10 day(s).
| Time | Temp. | Humidity | Pressure | Rain* | Wind** | Luminosity | Snow |
|---|---|---|---|---|---|---|---|
| 1777915730 | 20.56° C | 70% | 1016 hPa | 0 mm | - | - | - |
| 1777915129 | 19.44° C | 70% | 1016 hPa | 0 mm | - | - | - |
| 1777914529 | 18.33° C | 70% | 1016 hPa | 0 mm | - | - | - |
| 1777913928 | 18.33° C | 70% | 1016 hPa | 0 mm | - | - | - |
| 1777913328 | 20.56° C | 72% | 1016 hPa | 0 mm | - | - | - |
| 1777912727 | 19.44° C | 72% | 1016 hPa | 0 mm | - | - | - |
| 1777912126 | 18.33° C | 72% | 1017 hPa | 0 mm | - | - | - |
| 1777911526 | 21.67° C | 69% | 1017 hPa | 0 mm | - | - | - |
| 1777910925 | 21.67° C | 69% | 1017 hPa | 0 mm | - | - | - |
| 1777910325 | 20.56° C | 69% | 1017 hPa | 0 mm | - | - | - |
| 1777909724 | 19.44° C | 69% | 1017 hPa | 0 mm | - | - | - |
| 1777909123 | 18.33° C | 69% | 1017 hPa | 0 mm | - | - | - |
| 1777908523 | 21.11° C | 75% | 1017 hPa | 0 mm | - | - | - |
| 1777907922 | 20° C | 75% | 1017 hPa | 0 mm | - | - | - |
| 1777907321 | 18.89° C | 75% | 1017 hPa | 0 mm | - | - | - |
| 1777906721 | 17.78° C | 75% | 1017 hPa | 0 mm | - | - | - |
| 1777906120 | 16.67° C | 75% | 1017 hPa | 0 mm | - | - | - |
| 1777905519 | 15.56° C | 75% | 1017 hPa | 0 mm | - | - | - |
| 1777904919 | 18.89° C | 83% | 1018 hPa | 0 mm | - | - | - |
| 1777904318 | 17.78° C | 83% | 1018 hPa | 0 mm | - | - | - |
| 1777903718 | 16.67° C | 83% | 1018 hPa | 0 mm | - | - | - |
| 1777903117 | 16.67° C | 83% | 1018 hPa | 0 mm | - | - | - |
| 1777902516 | 15.56° C | 83% | 1018 hPa | 0 mm | - | - | - |
| 1777901916 | 11.67° C | 84% | 1018 hPa | 0 mm | - | - | - |
| 1777901315 | 13.89° C | 92% | 1018 hPa | 0 mm | - | - | - |
* Rain latest hour (hover to see other rain measurements)
** Current wind speed in m/s (hover to see current wind gust speed)